createdAt,value
2023-03-05T00:02:09.049Z,4.60
2023-03-05T00:04:39.564Z,5.38
2023-03-05T00:07:12.653Z,4.90
2023-03-05T00:09:45.074Z,5.63
2023-03-05T00:12:15.787Z,5.43
2023-03-05T00:14:46.349Z,4.70
2023-03-05T00:17:16.493Z,5.05
2023-03-05T00:19:46.970Z,5.35
2023-03-05T00:22:17.062Z,5.90
2023-03-05T00:24:52.529Z,4.22
2023-03-05T00:27:23.118Z,4.47
2023-03-05T00:29:53.497Z,4.82
2023-03-05T00:32:24.046Z,4.28
2023-03-05T00:34:54.147Z,5.50
2023-03-05T00:37:24.540Z,4.85
2023-03-05T00:39:57.643Z,5.90
2023-03-05T00:42:28.100Z,3.90
2023-03-05T00:44:58.027Z,4.95
2023-03-05T00:47:28.875Z,4.50
2023-03-05T00:49:59.584Z,4.32
2023-03-05T00:52:30.395Z,4.40
2023-03-05T00:55:04.644Z,5.43
2023-03-05T00:57:34.715Z,4.90
2023-03-05T01:00:05.400Z,4.95
2023-03-05T01:02:42.097Z,4.75
2023-03-05T01:05:15.836Z,4.65
2023-03-05T01:07:46.048Z,4.10
2023-03-05T01:10:18.335Z,4.47
2023-03-05T01:12:48.874Z,4.88
2023-03-05T01:15:19.400Z,4.05
2023-03-05T01:17:49.828Z,4.03
2023-03-05T01:20:22.943Z,5.03
2023-03-05T01:22:54.393Z,4.97
2023-03-05T01:25:27.735Z,4.55
2023-03-05T01:27:59.439Z,4.75
2023-03-05T01:30:30.339Z,3.83
2023-03-05T01:33:00.767Z,4.18
2023-03-05T01:35:31.758Z,4.25
2023-03-05T01:38:02.387Z,4.05
2023-03-05T01:40:35.762Z,4.43
2023-03-05T01:43:30.697Z,4.43
2023-03-05T01:49:35.691Z,4.07
2023-03-05T01:52:18.797Z,3.88
2023-03-05T01:54:56.041Z,4.43
2023-03-05T01:57:33.643Z,4.45
2023-03-05T02:00:12.291Z,3.97
2023-03-05T02:02:43.216Z,3.78
2023-03-05T02:05:27.349Z,4.07
2023-03-05T02:07:58.850Z,3.50
2023-03-05T02:10:32.745Z,5.30
2023-03-05T02:13:08.195Z,3.95
2023-03-05T02:15:39.891Z,3.55
2023-03-05T02:18:12.988Z,3.50
2023-03-05T02:20:52.035Z,3.60
2023-03-05T02:23:26.021Z,3.45
2023-03-05T02:25:56.023Z,3.70
2023-03-05T02:28:33.299Z,3.67
2023-03-05T02:31:03.836Z,3.47
2023-03-05T02:33:34.610Z,4.13
2023-03-05T02:36:05.033Z,3.25
2023-03-05T02:38:37.358Z,3.25
2023-03-05T02:41:07.961Z,3.67
2023-03-05T02:43:38.771Z,4.88
2023-03-05T02:46:10.270Z,3.25
2023-03-05T02:48:41.519Z,3.92
2023-03-05T02:51:13.312Z,3.83
2023-03-05T02:53:45.913Z,3.30
2023-03-05T02:56:16.698Z,3.83
2023-03-05T02:58:48.016Z,4.40
2023-03-05T03:01:17.806Z,3.75
2023-03-05T03:03:48.282Z,3.30
2023-03-05T03:06:18.764Z,3.08
2023-03-05T03:08:51.843Z,3.70
2023-03-05T03:11:22.309Z,3.97
2023-03-05T03:13:52.509Z,4.03
2023-03-05T03:16:23.069Z,4.50
2023-03-05T03:18:53.369Z,3.63
2023-03-05T03:21:27.685Z,3.50
2023-03-05T03:24:00.156Z,3.25
2023-03-05T03:26:30.944Z,3.03
2023-03-05T03:29:01.174Z,3.65
2023-03-05T03:31:31.226Z,3.42
2023-03-05T03:34:01.714Z,3.15
2023-03-05T03:36:32.502Z,3.08
2023-03-05T03:39:05.093Z,4.72
2023-03-05T03:41:35.458Z,2.92
2023-03-05T03:44:08.029Z,2.65
2023-03-05T03:46:38.740Z,3.03
2023-03-05T03:49:10.167Z,2.78
2023-03-05T03:51:40.179Z,2.63
2023-03-05T03:54:13.650Z,2.85
2023-03-05T03:56:44.885Z,3.80
2023-03-05T03:59:16.803Z,2.92
2023-03-05T04:01:48.364Z,2.85
2023-03-05T04:04:19.017Z,3.22
2023-03-05T04:06:49.562Z,4.82
2023-03-05T04:09:21.282Z,3.28
2023-03-05T04:11:52.336Z,2.90
2023-03-05T04:14:24.832Z,3.33
2023-03-05T04:16:55.486Z,2.80
2023-03-05T04:19:25.499Z,3.85
2023-03-05T04:21:56.884Z,2.72
2023-03-05T04:24:30.018Z,4.00
2023-03-05T04:27:00.452Z,4.20
2023-03-05T04:29:31.035Z,2.95
2023-03-05T04:32:01.014Z,3.67
2023-03-05T04:34:33.292Z,3.25
2023-03-05T04:37:03.961Z,2.58
2023-03-05T04:39:36.566Z,2.58
2023-03-05T04:42:07.379Z,2.60
2023-03-05T04:44:37.982Z,2.72
2023-03-05T04:47:08.445Z,4.15
2023-03-05T04:49:39.024Z,4.13
2023-03-05T04:52:09.154Z,3.33
2023-03-05T04:54:42.473Z,2.80
2023-03-05T04:57:12.975Z,3.15
2023-03-05T04:59:43.866Z,3.13
2023-03-05T05:02:14.689Z,3.15
2023-03-05T05:04:46.371Z,3.30
2023-03-05T05:07:17.172Z,3.58
2023-03-05T05:09:49.984Z,2.95
2023-03-05T05:12:20.381Z,3.00
2023-03-05T05:14:50.879Z,3.20
2023-03-05T05:17:21.440Z,4.82
2023-03-05T05:19:52.212Z,2.65
2023-03-05T05:22:22.712Z,3.83
2023-03-05T05:24:56.465Z,3.03
2023-03-05T05:27:27.161Z,3.92
2023-03-05T05:29:57.997Z,2.90
2023-03-05T05:32:28.533Z,2.70
2023-03-05T05:34:59.858Z,4.43
2023-03-05T05:37:32.493Z,2.95
2023-03-05T05:40:08.798Z,3.10
2023-03-05T05:42:39.500Z,3.20
2023-03-05T05:45:12.008Z,2.88
2023-03-05T05:47:42.462Z,2.97
2023-03-05T05:50:15.372Z,3.97
2023-03-05T05:52:45.256Z,3.03
2023-03-05T05:55:20.171Z,3.38
2023-03-05T05:57:50.533Z,4.07
2023-03-05T06:00:22.342Z,3.88
2023-03-05T06:02:52.592Z,6.38
2023-03-05T06:05:23.201Z,3.42
2023-03-05T06:07:53.581Z,3.72
2023-03-05T06:10:25.963Z,4.25
2023-03-05T06:12:56.933Z,4.03
2023-03-05T06:15:28.329Z,3.70
2023-03-05T06:17:58.345Z,3.15
2023-03-05T06:20:28.732Z,3.47
2023-03-05T06:22:59.051Z,3.47
2023-03-05T06:25:31.419Z,3.42
2023-03-05T06:28:01.414Z,3.05
2023-03-05T06:30:31.780Z,4.50
2023-03-05T06:33:02.201Z,2.70
2023-03-05T06:35:32.661Z,2.90
2023-03-05T06:38:02.639Z,3.05
2023-03-05T06:40:35.115Z,3.47
2023-03-05T06:43:06.188Z,3.63
2023-03-05T06:45:36.039Z,3.00
2023-03-05T06:48:07.622Z,4.80
2023-03-05T06:50:39.202Z,3.47
2023-03-05T06:53:10.515Z,3.03
2023-03-05T06:55:43.411Z,2.95
2023-03-05T06:58:13.970Z,5.03
2023-03-05T07:00:45.921Z,3.20
2023-03-05T07:03:17.494Z,2.95
2023-03-05T07:05:47.961Z,3.80
2023-03-05T07:08:19.300Z,4.28
2023-03-05T07:10:51.266Z,4.05
2023-03-05T07:13:21.696Z,3.10
2023-03-05T07:15:52.235Z,2.92
2023-03-05T07:18:22.817Z,2.72
2023-03-05T07:20:53.540Z,3.15
2023-03-05T07:23:23.806Z,3.38
2023-03-05T07:25:56.473Z,3.35
2023-03-05T07:28:27.017Z,3.22
2023-03-05T07:31:02.365Z,3.00
2023-03-05T07:33:33.064Z,3.42
2023-03-05T07:36:05.645Z,2.38
2023-03-05T07:38:35.465Z,2.60
2023-03-05T07:41:09.697Z,3.20
2023-03-05T07:43:41.141Z,5.28
2023-03-05T07:46:14.982Z,3.58
2023-03-05T07:48:45.613Z,2.70
2023-03-05T07:51:18.757Z,2.50
2023-03-05T07:53:50.553Z,1.92
2023-03-05T07:56:27.784Z,2.30
2023-03-05T07:58:57.774Z,1.70
2023-03-05T08:01:28.485Z,2.97
2023-03-05T08:03:58.734Z,2.72
2023-03-05T08:06:29.219Z,3.00
2023-03-05T08:09:00.245Z,2.38
2023-03-05T08:11:32.492Z,4.28
2023-03-05T08:14:05.081Z,3.60
2023-03-05T08:16:35.915Z,2.25
2023-03-05T08:19:06.571Z,2.90
2023-03-05T08:21:39.283Z,2.58
2023-03-05T08:24:11.795Z,3.00
2023-03-05T08:26:45.247Z,2.17
2023-03-05T08:29:15.853Z,2.83
2023-03-05T08:31:50.205Z,3.55
2023-03-05T08:34:20.281Z,2.78
2023-03-05T08:36:51.446Z,3.72
2023-03-05T08:39:22.234Z,2.83
2023-03-05T08:41:55.083Z,3.28
2023-03-05T08:44:25.167Z,3.25
2023-03-05T08:46:55.629Z,2.15
2023-03-05T08:49:26.552Z,3.28
2023-03-05T08:51:56.817Z,1.70
2023-03-05T08:54:27.029Z,2.42
2023-03-05T08:56:59.441Z,2.55
2023-03-05T08:59:29.844Z,2.78
2023-03-05T09:02:03.555Z,3.35
2023-03-05T09:04:34.194Z,2.42
2023-03-05T09:07:04.169Z,2.42
2023-03-05T09:09:36.087Z,2.90
2023-03-05T09:12:11.142Z,2.85
2023-03-05T09:14:42.849Z,2.47
2023-03-05T09:17:13.613Z,1.65
2023-03-05T09:19:44.430Z,2.92
2023-03-05T09:22:14.420Z,1.77
2023-03-05T09:24:45.832Z,2.17
2023-03-05T09:27:17.384Z,2.70
2023-03-05T09:29:48.599Z,1.73
2023-03-05T09:32:19.100Z,1.48
2023-03-05T09:34:49.093Z,3.20
2023-03-05T09:37:19.232Z,2.17
2023-03-05T09:39:49.866Z,2.47
2023-03-05T09:43:04.918Z,2.03
2023-03-05T09:45:45.089Z,1.75
2023-03-05T09:48:23.516Z,2.10
2023-03-05T09:51:02.249Z,2.08
2023-03-05T09:53:46.127Z,3.42
2023-03-05T09:56:21.788Z,2.75
2023-03-05T09:58:59.793Z,2.10
2023-03-05T10:01:39.291Z,2.45
2023-03-05T10:04:16.661Z,2.75
2023-03-05T10:07:04.530Z,2.08
2023-03-05T10:09:51.784Z,3.95
2023-03-05T10:12:31.717Z,1.98
2023-03-05T10:15:05.193Z,1.25
2023-03-05T10:18:00.922Z,1.52
2023-03-05T10:20:53.723Z,2.78
2023-03-05T10:23:38.699Z,2.88
2023-03-05T10:26:30.347Z,1.88
2023-03-05T10:29:25.423Z,1.40
2023-03-05T10:32:22.786Z,2.30
2023-03-05T10:35:22.082Z,2.33
2023-03-05T10:38:21.884Z,2.25
2023-03-05T10:40:56.577Z,2.63
2023-03-05T10:43:38.969Z,2.60
2023-03-05T10:46:18.052Z,2.60
2023-03-05T10:48:55.991Z,1.73
2023-03-05T10:51:43.681Z,2.70
2023-03-05T10:54:26.941Z,1.80
2023-03-05T10:57:16.423Z,3.22
2023-03-05T10:59:53.148Z,1.77
2023-03-05T11:02:25.055Z,2.58
2023-03-05T11:04:58.487Z,1.58
2023-03-05T11:07:40.667Z,2.45
2023-03-05T11:10:22.973Z,2.30
2023-03-05T11:12:54.796Z,3.83
2023-03-05T11:15:32.618Z,2.75
2023-03-05T11:18:21.759Z,2.92
2023-03-05T11:20:55.059Z,2.60
2023-03-05T11:23:26.715Z,2.03
2023-03-05T11:26:12.777Z,3.60
2023-03-05T11:28:58.773Z,1.67
2023-03-05T11:31:32.519Z,2.17
2023-03-05T11:34:05.956Z,2.33
2023-03-05T11:36:41.201Z,2.50
2023-03-05T11:39:20.000Z,3.45
2023-03-05T11:41:54.458Z,3.10
2023-03-05T11:44:29.497Z,2.88
2023-03-05T11:47:05.529Z,2.75
2023-03-05T11:49:42.264Z,3.88
2023-03-05T11:52:21.562Z,2.03
2023-03-05T11:55:03.518Z,3.50
2023-03-05T11:57:49.427Z,4.10
2023-03-05T12:00:26.568Z,2.47
2023-03-05T12:03:01.439Z,2.88
2023-03-05T12:05:34.294Z,2.35
2023-03-05T12:08:07.144Z,2.78
2023-03-05T12:10:37.723Z,4.50
2023-03-05T12:13:19.545Z,4.47
2023-03-05T12:16:18.713Z,3.95
2023-03-05T12:19:05.705Z,3.25
2023-03-05T12:21:41.860Z,4.40
2023-03-05T12:24:40.830Z,4.00
2023-03-05T12:27:19.281Z,2.83
2023-03-05T12:29:52.333Z,2.70
2023-03-05T12:32:55.702Z,2.10
2023-03-05T12:35:32.793Z,4.65
2023-03-05T12:38:26.890Z,3.13
2023-03-05T12:41:46.101Z,4.70
2023-03-05T12:44:26.186Z,2.45
2023-03-05T12:47:24.024Z,4.47
2023-03-05T12:49:54.590Z,5.03
2023-03-05T12:52:33.531Z,4.03
2023-03-05T12:55:22.034Z,5.47
2023-03-05T12:58:02.711Z,4.05
2023-03-05T13:00:49.897Z,5.05
2023-03-05T13:03:26.428Z,2.88
2023-03-05T13:06:01.052Z,5.40
2023-03-05T13:08:36.410Z,4.32
2023-03-05T13:11:11.981Z,3.47
2023-03-05T13:13:49.118Z,4.38
2023-03-05T13:16:22.773Z,4.03
2023-03-05T13:18:56.175Z,4.68
2023-03-05T13:21:30.155Z,4.18
2023-03-05T13:24:03.444Z,5.93
2023-03-05T13:26:41.597Z,3.70
2023-03-05T13:29:19.981Z,5.18
2023-03-05T13:31:54.395Z,1.92
2023-03-05T13:34:40.865Z,4.05
2023-03-05T13:37:22.153Z,2.83
2023-03-05T13:39:57.923Z,3.55
2023-03-05T13:42:30.605Z,5.10
2023-03-05T13:45:05.367Z,5.68
2023-03-05T13:47:38.178Z,4.13
2023-03-05T13:50:26.636Z,6.25
2023-03-05T13:52:59.301Z,5.20
2023-03-05T13:55:29.918Z,4.95
2023-03-05T13:58:00.602Z,4.03
2023-03-05T14:00:47.624Z,6.40
2023-03-05T14:03:28.424Z,4.93
2023-03-05T14:05:59.894Z,5.30
2023-03-05T14:08:30.456Z,5.43
2023-03-05T14:11:13.462Z,3.08
2023-03-05T14:13:45.586Z,3.30
2023-03-05T14:16:33.056Z,5.00
2023-03-05T14:19:08.005Z,8.45
2023-03-05T14:21:51.390Z,4.72
2023-03-05T14:24:28.978Z,5.35
2023-03-05T14:27:03.823Z,4.32
2023-03-05T14:29:35.926Z,4.53
2023-03-05T14:32:19.282Z,5.05
2023-03-05T14:34:59.220Z,4.25
2023-03-05T14:37:36.840Z,5.85
2023-03-05T14:40:10.641Z,5.43
2023-03-05T14:42:59.542Z,3.30
2023-03-05T14:45:33.660Z,5.50
2023-03-05T14:48:10.356Z,3.60
2023-03-05T14:50:45.794Z,3.40
2023-03-05T14:53:22.672Z,5.00
2023-03-05T14:55:57.197Z,6.30
2023-03-05T14:58:30.635Z,4.88
2023-03-05T15:01:01.833Z,3.03
2023-03-05T15:03:35.776Z,6.10
2023-03-05T15:06:07.842Z,4.55
2023-03-05T15:08:38.833Z,4.32
2023-03-05T15:11:11.518Z,3.05
2023-03-05T15:13:42.277Z,6.03
2023-03-05T15:16:21.447Z,6.60
2023-03-05T15:18:54.374Z,3.28
2023-03-05T15:21:27.281Z,3.47
2023-03-05T15:23:58.140Z,4.47
2023-03-05T15:26:29.498Z,4.60
2023-03-05T15:29:00.595Z,2.35
2023-03-05T15:31:32.277Z,4.03
2023-03-05T15:34:04.400Z,4.70
2023-03-05T15:36:34.651Z,4.07
2023-03-05T15:39:04.623Z,2.78
2023-03-05T15:41:35.303Z,3.38
2023-03-05T15:44:05.742Z,4.10
2023-03-05T15:46:38.159Z,4.82
2023-03-05T15:49:11.272Z,3.60
2023-03-05T15:51:42.395Z,4.57
2023-03-05T15:54:14.433Z,5.45
2023-03-05T15:56:46.516Z,3.60
2023-03-05T15:59:18.227Z,4.20
2023-03-05T16:01:53.206Z,4.25
2023-03-05T16:04:27.364Z,3.58
2023-03-05T16:07:00.833Z,4.07
2023-03-05T16:09:38.631Z,6.90
2023-03-05T16:12:15.547Z,6.65
2023-03-05T16:14:45.756Z,6.05
2023-03-05T16:17:17.663Z,5.57
2023-03-05T16:19:55.347Z,4.40
2023-03-05T16:22:26.619Z,4.53
2023-03-05T16:24:57.179Z,5.18
2023-03-05T16:27:27.973Z,4.70
2023-03-05T16:29:58.603Z,3.80
2023-03-05T16:32:29.269Z,3.88
2023-03-05T16:35:02.064Z,5.32
2023-03-05T16:37:32.730Z,3.10
2023-03-05T16:40:08.919Z,4.65
2023-03-05T16:42:41.996Z,3.45
2023-03-05T16:45:15.395Z,3.97
2023-03-05T16:47:46.567Z,3.03
2023-03-05T16:50:19.041Z,3.95
2023-03-05T16:52:49.115Z,4.35
2023-03-05T16:55:20.490Z,2.92
2023-03-05T16:57:52.594Z,2.47
2023-03-05T17:00:25.690Z,3.17
2023-03-05T17:02:55.546Z,5.57
2023-03-05T17:05:30.240Z,4.88
2023-03-05T17:08:02.574Z,6.57
2023-03-05T17:10:35.870Z,3.72
2023-03-05T17:13:06.142Z,4.90
2023-03-05T17:15:36.740Z,3.63
2023-03-05T17:18:08.735Z,3.45
2023-03-05T17:20:41.376Z,2.72
2023-03-05T17:23:11.325Z,4.18
2023-03-05T17:25:41.979Z,3.85
2023-03-05T17:28:13.290Z,3.33
2023-03-05T17:30:43.503Z,4.63
2023-03-05T17:33:15.587Z,5.22
2023-03-05T17:35:50.320Z,5.38
2023-03-05T17:38:22.367Z,4.57
2023-03-05T17:40:53.145Z,5.57
2023-03-05T17:43:24.085Z,2.70
2023-03-05T17:46:00.163Z,5.18
2023-03-05T17:48:34.916Z,3.00
2023-03-05T17:51:07.559Z,3.10
2023-03-05T17:53:39.934Z,3.83
2023-03-05T17:56:13.200Z,3.38
2023-03-05T17:58:45.336Z,4.07
2023-03-05T18:01:25.074Z,3.75
2023-03-05T18:03:56.460Z,2.60
2023-03-05T18:06:29.697Z,3.22
2023-03-05T18:09:00.963Z,4.07
2023-03-05T18:11:31.219Z,4.43
2023-03-05T18:14:02.475Z,3.80
2023-03-05T18:16:33.955Z,3.83
2023-03-05T18:19:05.124Z,3.45
2023-03-05T18:21:37.953Z,4.07
2023-03-05T18:24:09.500Z,4.68
2023-03-05T18:26:40.097Z,3.97
2023-03-05T18:29:10.011Z,3.92
2023-03-05T18:31:39.896Z,3.50
2023-03-05T18:34:10.367Z,3.67
2023-03-05T18:36:43.394Z,4.07
2023-03-05T18:39:16.973Z,3.28
2023-03-05T18:41:47.751Z,2.95
2023-03-05T18:44:20.676Z,3.30
2023-03-05T18:46:51.896Z,5.30
2023-03-05T18:49:23.278Z,5.25
2023-03-05T18:51:56.558Z,4.75
2023-03-05T18:54:27.676Z,4.03
2023-03-05T18:56:57.833Z,3.55
2023-03-05T18:59:30.126Z,3.80
2023-03-05T19:01:59.985Z,3.47
2023-03-05T19:04:30.763Z,4.13
2023-03-05T19:07:03.431Z,4.22
2023-03-05T19:09:48.303Z,3.45
2023-03-05T19:12:18.682Z,3.25
2023-03-05T19:14:49.526Z,3.58
2023-03-05T19:17:23.060Z,3.97
2023-03-05T19:19:54.094Z,3.75
2023-03-05T19:22:28.958Z,4.65
2023-03-05T19:24:59.900Z,5.18
2023-03-05T19:27:32.006Z,5.30
2023-03-05T19:30:02.216Z,4.45
2023-03-05T19:32:32.871Z,3.97
2023-03-05T19:35:03.505Z,3.88
2023-03-05T19:37:36.883Z,4.85
2023-03-05T19:40:09.095Z,3.90
2023-03-05T19:42:42.794Z,4.82
2023-03-05T19:45:14.369Z,4.68
2023-03-05T19:47:44.625Z,5.25
2023-03-05T19:50:19.809Z,5.60
2023-03-05T19:52:52.763Z,3.83
2023-03-05T19:55:23.390Z,7.07
2023-03-05T19:57:53.876Z,3.45
2023-03-05T20:00:27.358Z,4.70
2023-03-05T20:02:58.672Z,5.45
2023-03-05T20:05:29.896Z,4.57
2023-03-05T20:08:01.860Z,5.93
2023-03-05T20:10:32.081Z,4.30
2023-03-05T20:13:02.650Z,4.90
2023-03-05T20:15:33.240Z,4.30
2023-03-05T20:18:03.230Z,5.60
2023-03-05T20:20:33.912Z,3.80
2023-03-05T20:23:06.821Z,4.28
2023-03-05T20:25:37.733Z,4.68
2023-03-05T20:28:07.912Z,4.47
2023-03-05T20:30:38.411Z,4.80
2023-03-05T20:33:08.611Z,5.43
2023-03-05T20:35:39.134Z,4.35
2023-03-05T20:38:21.100Z,5.45
2023-03-05T20:40:52.716Z,4.82
2023-03-05T20:43:25.354Z,4.85
2023-03-05T20:45:57.556Z,4.03
2023-03-05T20:48:29.402Z,5.68
2023-03-05T20:51:02.192Z,5.22
2023-03-05T20:53:34.607Z,4.30
2023-03-05T20:56:05.694Z,5.45
2023-03-05T20:58:35.581Z,4.28
2023-03-05T21:01:06.349Z,4.10
2023-03-05T21:03:40.743Z,5.05
2023-03-05T21:06:12.205Z,5.47
2023-03-05T21:08:44.889Z,4.43
2023-03-05T21:11:16.683Z,4.65
2023-03-05T21:13:47.587Z,5.38
2023-03-05T21:16:22.706Z,5.47
2023-03-05T21:18:53.328Z,5.68
2023-03-05T21:21:24.362Z,4.72
2023-03-05T21:23:57.203Z,4.93
2023-03-05T21:26:27.407Z,5.35
2023-03-05T21:28:59.906Z,6.38
2023-03-05T21:31:30.396Z,4.25
2023-03-05T21:34:00.919Z,4.43
2023-03-05T21:36:34.063Z,4.82
2023-03-05T21:39:11.018Z,5.03
2023-03-05T21:41:42.157Z,6.40
2023-03-05T21:44:16.095Z,5.70
2023-03-05T21:46:46.239Z,5.25
2023-03-05T21:49:16.845Z,4.68
2023-03-05T21:52:02.310Z,4.80
2023-03-05T21:54:35.171Z,5.05
2023-03-05T21:57:05.223Z,4.53
2023-03-05T21:59:35.457Z,6.30
2023-03-05T22:02:06.056Z,7.03
2023-03-05T22:04:36.822Z,7.15
2023-03-05T22:07:11.881Z,4.82
2023-03-05T22:09:44.217Z,5.65
2023-03-05T22:12:21.123Z,6.60
2023-03-05T22:14:52.503Z,6.20
2023-03-05T22:17:22.502Z,6.10
2023-03-05T22:19:52.574Z,5.25
2023-03-05T22:22:22.444Z,5.57
2023-03-05T22:24:54.431Z,5.18
2023-03-05T22:27:24.962Z,5.97
2023-03-05T22:29:55.563Z,5.00
2023-03-05T22:32:26.506Z,5.28
2023-03-05T22:34:59.032Z,5.15
2023-03-05T22:37:30.528Z,5.35
2023-03-05T22:40:03.421Z,5.57
2023-03-05T22:42:33.678Z,5.75
2023-03-05T22:45:04.491Z,6.05
2023-03-05T22:47:35.150Z,6.03
2023-03-05T22:50:06.764Z,5.47
2023-03-05T22:52:37.384Z,4.72
2023-03-05T22:55:13.908Z,6.65
2023-03-05T22:57:46.222Z,6.00
2023-03-05T23:00:21.988Z,5.68
2023-03-05T23:02:52.677Z,5.35
2023-03-05T23:05:23.703Z,5.32
2023-03-05T23:07:54.304Z,4.88
2023-03-05T23:10:29.768Z,6.35
2023-03-05T23:13:10.312Z,6.10
2023-03-05T23:15:42.215Z,5.70
2023-03-05T23:18:16.645Z,4.50
2023-03-05T23:20:58.665Z,4.40
2023-03-05T23:23:28.897Z,4.45
2023-03-05T23:26:00.860Z,5.97
2023-03-05T23:28:31.464Z,5.32
2023-03-05T23:31:03.204Z,4.78
2023-03-05T23:33:33.713Z,4.25
2023-03-05T23:36:04.946Z,4.40
2023-03-05T23:38:37.500Z,4.03
2023-03-05T23:41:12.285Z,5.47
2023-03-05T23:43:42.946Z,4.85
2023-03-05T23:46:14.625Z,4.88
2023-03-05T23:48:45.042Z,4.15
2023-03-05T23:51:15.421Z,4.13
2023-03-05T23:53:51.603Z,4.40
2023-03-05T23:56:23.554Z,4.22
2023-03-05T23:58:56.492Z,4.80
